Time;durP1;ratioP1;P1;durP2;ratioP2;P2;SDS_P1;SDS_P2;PMS_P1;PMS_P2;Temp;Humidity;BMP_temperature;BMP_pressure;BME280_temperature;BME280_humidity;BME280_pressure;Samples;Min_cycle;Max_cycle;Signal;HPM_P1;HPM_P2
2021/04/23 00:00:18;;;;;;;7.45;1.48;;;15.50;47.20;;;;;;6143132;23;20029;-82
2021/04/23 00:02:47;;;;;;;7.13;1.95;;;15.50;47.20;;;;;;6156936;23;20306;-82
2021/04/23 00:05:14;;;;;;;8.07;1.85;;;15.50;47.20;;;;;;6142803;23;20081;-82
2021/04/23 00:07:40;;;;;;;7.75;1.70;;;15.50;47.20;;;;;;6168789;23;20017;-82
2021/04/23 00:10:11;;;;;;;4.50;1.50;;;15.50;47.20;;;;;;6168311;23;20020;-81
2021/04/23 00:12:37;;;;;;;8.10;2.05;;;15.50;47.20;;;;;;6142311;23;20009;-81
2021/04/23 00:15:06;;;;;;;6.95;1.65;;;15.40;47.20;;;;;;6141940;23;20092;-82
2021/04/23 00:17:32;;;;;;;8.68;1.73;;;15.50;47.30;;;;;;6142497;23;20013;-81
2021/04/23 00:19:58;;;;;;;9.02;1.60;;;15.40;47.10;;;;;;6168081;23;20010;-82
2021/04/23 00:22:24;;;;;;;5.40;1.42;;;15.40;47.20;;;;;;6167859;23;20088;-82
2021/04/23 00:24:49;;;;;;;5.80;1.63;;;15.40;47.20;;;;;;6142616;23;20356;-81
2021/04/23 00:27:15;;;;;;;9.30;1.80;;;15.40;47.30;;;;;;6108856;23;20009;-82
2021/04/23 00:29:41;;;;;;;9.05;2.22;;;15.40;47.30;;;;;;6142763;23;20018;-82
2021/04/23 00:34:52;;;;;;;8.68;1.67;;;15.40;47.40;;;;;;6168079;23;20013;-83
2021/04/23 00:37:18;;;;;;;5.63;1.20;;;15.30;47.30;;;;;;6132544;23;20268;-81
2021/04/23 00:39:44;;;;;;;4.45;1.52;;;15.40;47.40;;;;;;6132304;23;20014;-82
2021/04/23 00:42:10;;;;;;;6.88;2.08;;;15.30;47.30;;;;;;6168169;23;20098;-82
2021/04/23 00:44:36;;;;;;;5.57;1.90;;;15.30;47.70;;;;;;6168193;23;20020;-82
2021/04/23 00:47:03;;;;;;;7.10;1.50;;;15.30;47.40;;;;;;6142401;23;20056;-82
2021/04/23 00:49:29;;;;;;;7.28;2.17;;;15.30;47.40;;;;;;6157867;23;20296;-82
2021/04/23 00:52:00;;;;;;;8.48;1.60;;;15.30;47.40;;;;;;6168009;23;20025;-82
2021/04/23 00:54:29;;;;;;;5.57;1.42;;;15.30;47.40;;;;;;6142171;23;20010;-82
2021/04/23 00:56:55;;;;;;;8.88;1.75;;;15.30;47.50;;;;;;6131861;23;20078;-81
2021/04/23 00:59:22;;;;;;;7.20;1.63;;;15.30;47.60;;;;;;6167970;23;20464;-81
2021/04/23 01:02:01;;;;;;;8.25;1.38;;;15.30;47.60;;;;;;6168366;23;20346;-82
2021/04/23 01:04:30;;;;;;;6.43;2.05;;;15.30;47.60;;;;;;6168218;23;20013;-82
2021/04/23 01:06:56;;;;;;;7.25;1.88;;;15.20;47.60;;;;;;6132908;23;20088;-81
2021/04/23 01:09:25;;;;;;;5.97;1.33;;;15.20;47.50;;;;;;6132442;23;20009;-82
2021/04/23 01:11:52;;;;;;;6.38;1.55;;;15.20;47.60;;;;;;6168107;23;20009;-82
2021/04/23 01:14:18;;;;;;;4.57;1.20;;;15.20;47.60;;;;;;6132793;23;20024;-82
2021/04/23 01:16:45;;;;;;;7.80;1.70;;;15.20;47.60;;;;;;6142272;23;20017;-82
2021/04/23 01:19:15;;;;;;;5.43;1.30;;;15.20;47.60;;;;;;6157846;23;20014;-81
2021/04/23 01:21:41;;;;;;;7.05;1.50;;;15.20;47.60;;;;;;6167095;23;20017;-82
2021/04/23 01:24:10;;;;;;;4.88;1.73;;;15.20;47.70;;;;;;6167430;23;20302;-81
2021/04/23 01:26:39;;;;;;;6.18;1.25;;;15.20;47.70;;;;;;6168592;23;20465;-82
2021/04/23 01:29:07;;;;;;;8.75;1.38;;;15.10;47.70;;;;;;6167466;23;20024;-82
2021/04/23 01:31:38;;;;;;;8.88;1.45;;;15.10;47.60;;;;;;6167746;23;20013;-81
2021/04/23 01:34:11;;;;;;;8.70;1.63;;;15.10;47.80;;;;;;6157994;23;20015;-83
2021/04/23 01:36:38;;;;;;;8.27;1.52;;;15.10;47.70;;;;;;6142226;23;20093;-81
2021/04/23 01:39:08;;;;;;;6.63;1.80;;;15.10;47.70;;;;;;6142012;23;20009;-81
2021/04/23 01:41:34;;;;;;;5.60;1.42;;;15.10;47.70;;;;;;6167099;23;20080;-81
2021/04/23 01:44:01;;;;;;;6.78;2.03;;;15.10;47.80;;;;;;6167842;23;20057;-82
2021/04/23 01:46:27;;;;;;;6.93;1.65;;;15.10;47.70;;;;;;6141791;23;20044;-82
2021/04/23 01:48:53;;;;;;;7.97;1.95;;;15.10;47.70;;;;;;6157645;23;20092;-81
2021/04/23 01:51:19;;;;;;;9.55;1.60;;;15.00;47.60;;;;;;6141754;23;20414;-81
2021/04/23 01:53:45;;;;;;;7.05;1.20;;;15.00;47.70;;;;;;6158297;23;20020;-81
2021/04/23 01:56:12;;;;;;;8.25;1.73;;;15.00;47.60;;;;;;6167498;23;20294;-82
2021/04/23 01:58:39;;;;;;;4.20;1.02;;;15.00;47.60;;;;;;6160565;23;20324;-82
2021/04/23 02:01:08;;;;;;;8.68;1.67;;;15.00;47.70;;;;;;6132642;23;20022;-81
2021/04/23 02:03:35;;;;;;;8.75;1.73;;;15.00;47.80;;;;;;6157054;23;20013;-81
2021/04/23 02:06:04;;;;;;;7.93;1.58;;;15.00;47.70;;;;;;6132328;23;20080;-81
2021/04/23 02:08:30;;;;;;;5.80;1.27;;;14.90;47.70;;;;;;6167387;23;20017;-81
2021/04/23 02:11:09;;;;;;;6.60;1.13;;;15.00;47.80;;;;;;6157451;23;20021;-81
2021/04/23 02:13:36;;;;;;;6.75;1.67;;;15.00;47.80;;;;;;6167264;23;20419;-81
2021/04/23 02:16:03;;;;;;;5.38;1.17;;;15.00;47.90;;;;;;6142178;23;20013;-81
2021/04/23 02:18:29;;;;;;;6.72;1.52;;;14.90;47.90;;;;;;6167695;23;20013;-81
2021/04/23 02:20:55;;;;;;;6.03;1.73;;;14.90;47.90;;;;;;6167772;23;20013;-81
2021/04/23 02:23:23;;;;;;;3.70;1.40;;;14.90;47.90;;;;;;6167375;23;20024;-81
2021/04/23 02:25:50;;;;;;;8.00;1.58;;;14.90;47.90;;;;;;6167041;23;20088;-81
2021/04/23 02:28:17;;;;;;;7.70;1.65;;;14.90;47.90;;;;;;6157824;23;20020;-81
2021/04/23 02:31:04;;;;;;;6.55;1.73;;;14.90;47.90;;;;;;6133700;23;20018;-81
2021/04/23 02:33:31;;;;;;;5.38;1.52;;;14.90;47.90;;;;;;6169547;23;20017;-80
2021/04/23 02:35:58;;;;;;;8.15;1.40;;;14.90;47.90;;;;;;6159487;23;20009;-82
2021/04/23 02:38:25;;;;;;;7.50;1.55;;;14.90;47.90;;;;;;6133704;23;20353;-81
2021/04/23 02:40:53;;;;;;;6.50;1.30;;;14.90;47.90;;;;;;6143165;23;20013;-81
2021/04/23 02:43:23;;;;;;;6.00;1.50;;;14.80;47.90;;;;;;6168391;23;20060;-81
2021/04/23 02:45:50;;;;;;;7.78;1.50;;;14.80;48.00;;;;;;6159350;23;20009;-81
2021/04/23 02:48:19;;;;;;;8.15;1.33;;;14.80;48.00;;;;;;6159201;23;20068;-81
2021/04/23 02:50:50;;;;;;;9.60;1.90;;;14.80;48.00;;;;;;6143892;23;20403;-82
2021/04/23 02:53:16;;;;;;;6.07;1.80;;;14.80;48.00;;;;;;6168939;23;20020;-81
2021/04/23 02:55:43;;;;;;;8.32;1.83;;;14.80;48.00;;;;;;6134365;23;20018;-82
2021/04/23 02:58:15;;;;;;;6.72;1.63;;;14.80;48.00;;;;;;6158991;23;20022;-81
2021/04/23 03:00:46;;;;;;;6.32;1.50;;;14.80;48.00;;;;;;6143550;23;20037;-82
2021/04/23 03:03:12;;;;;;;6.68;1.40;;;14.80;48.00;;;;;;6168700;23;20430;-81
2021/04/23 03:05:41;;;;;;;6.60;1.50;;;14.80;48.00;;;;;;6168941;23;20015;-81
2021/04/23 03:08:08;;;;;;;9.13;2.65;;;14.80;48.00;;;;;;6169480;23;20275;-82
2021/04/23 03:10:37;;;;;;;7.53;1.63;;;14.80;48.00;;;;;;6168559;23;20307;-81
2021/04/23 03:13:12;;;;;;;6.70;1.17;;;14.80;48.00;;;;;;6169316;23;20080;-81
2021/04/23 03:15:39;;;;;;;5.75;1.63;;;14.80;48.00;;;;;;6168284;23;20044;-81
2021/04/23 03:18:05;;;;;;;7.07;1.50;;;14.70;47.90;;;;;;6133482;23;20476;-81
2021/04/23 03:20:31;;;;;;;6.07;1.33;;;14.80;48.00;;;;;;6168661;23;20018;-81
2021/04/23 03:22:57;;;;;;;8.77;1.77;;;14.80;48.00;;;;;;6159147;23;20075;-81
2021/04/23 03:25:25;;;;;;;6.70;1.80;;;14.70;48.00;;;;;;6143064;23;20080;-81
2021/04/23 03:27:52;;;;;;;8.05;1.67;;;14.70;48.00;;;;;;6133573;23;20085;-81
2021/04/23 03:30:23;;;;;;;10.30;1.95;;;14.70;48.00;;;;;;6159024;23;20052;-81
2021/04/23 03:32:49;;;;;;;8.02;1.73;;;14.70;48.10;;;;;;6168288;23;20010;-81
2021/04/23 03:35:15;;;;;;;10.70;1.50;;;14.70;48.20;;;;;;6168851;23;20013;-82
2021/04/23 03:37:43;;;;;;;6.13;1.48;;;14.70;48.30;;;;;;6168487;23;20009;-82
2021/04/23 03:40:10;;;;;;;5.25;1.77;;;14.60;48.20;;;;;;6158591;23;20028;-81
2021/04/23 03:42:37;;;;;;;5.57;1.65;;;14.70;48.40;;;;;;6168149;23;20381;-81
2021/04/23 03:45:04;;;;;;;5.00;1.30;;;14.70;48.50;;;;;;6168267;23;20033;-82
2021/04/23 03:47:30;;;;;;;7.43;1.50;;;14.60;48.50;;;;;;6158625;23;20079;-81
2021/04/23 03:49:56;;;;;;;7.35;2.00;;;14.70;48.50;;;;;;6168361;23;20009;-82
2021/04/23 03:52:22;;;;;;;4.63;1.40;;;14.60;48.40;;;;;;6168520;23;20348;-81
2021/04/23 03:54:48;;;;;;;5.93;1.38;;;14.60;48.50;;;;;;6142756;23;20099;-81
2021/04/23 03:57:14;;;;;;;6.20;1.60;;;14.60;48.50;;;;;;6133014;23;20092;-81
2021/04/23 03:59:40;;;;;;;6.45;1.63;;;14.60;48.50;;;;;;6168709;23;20017;-81
2021/04/23 04:02:06;;;;;;;9.27;1.65;;;14.60;48.50;;;;;;6142463;23;20014;-81
2021/04/23 04:04:32;;;;;;;5.25;1.55;;;14.60;48.50;;;;;;6168264;23;20052;-81
2021/04/23 04:06:58;;;;;;;8.60;1.60;;;14.60;48.50;;;;;;6168252;23;20300;-81
2021/04/23 04:09:24;;;;;;;4.93;1.40;;;14.60;48.60;;;;;;6159565;23;20013;-81
2021/04/23 04:11:50;;;;;;;6.63;1.88;;;14.60;48.70;;;;;;6142228;23;20354;-81
2021/04/23 04:14:16;;;;;;;6.82;2.05;;;14.60;48.70;;;;;;6168451;23;20471;-82
2021/04/23 04:16:42;;;;;;;7.13;2.13;;;14.60;48.70;;;;;;6168987;23;20017;-81
2021/04/23 04:19:09;;;;;;;3.17;1.25;;;14.60;48.70;;;;;;6142283;23;20083;-82
2021/04/23 04:21:35;;;;;;;7.55;1.90;;;14.50;48.80;;;;;;6158231;23;20009;-82
2021/04/23 04:24:01;;;;;;;13.77;2.05;;;14.50;49.20;;;;;;6108531;23;20017;-83
2021/04/23 04:26:27;;;;;;;7.78;1.77;;;14.50;49.60;;;;;;6167871;23;20019;-82
2021/04/23 04:28:53;;;;;;;13.02;1.67;;;14.50;49.70;;;;;;6167828;23;20088;-82
2021/04/23 04:31:20;;;;;;;8.52;1.20;;;14.70;50.10;;;;;;6158239;23;20017;-84
2021/04/23 04:33:46;;;;;;;5.45;1.33;;;14.90;50.10;;;;;;6108535;23;20014;-83
2021/04/23 04:36:13;;;;;;;6.80;1.13;;;15.10;50.10;;;;;;6159018;23;20009;-84
2021/04/23 04:38:40;;;;;;;7.60;1.50;;;15.30;50.10;;;;;;6108283;23;20014;-86
2021/04/23 04:41:06;;;;;;;10.73;1.73;;;15.60;50.10;;;;;;6142629;23;20010;-83
2021/04/23 04:43:49;;;;;;;11.32;1.52;;;15.60;50.10;;;;;;6157052;23;20016;-85
2021/04/23 04:46:17;;;;;;;4.00;0.98;;;15.70;50.60;;;;;;6168107;23;20088;-73
2021/04/23 04:48:49;;;;;;;10.90;1.20;;;16.00;50.60;;;;;;6167981;23;20036;-79
2021/04/23 04:51:15;;;;;;;7.28;2.05;;;16.10;50.70;;;;;;6168479;23;20089;-76
2021/04/23 04:53:41;;;;;;;6.43;1.27;;;16.30;50.70;;;;;;6158007;23;20057;-77
2021/04/23 04:56:07;;;;;;;7.32;1.67;;;16.10;51.40;;;;;;6167020;23;20016;-79
2021/04/23 04:58:35;;;;;;;5.38;1.60;;;16.20;51.60;;;;;;6160794;23;20068;-79
2021/04/23 05:01:04;;;;;;;9.63;1.67;;;16.00;51.80;;;;;;6142298;23;20013;-76
2021/04/23 05:03:30;;;;;;;9.07;1.73;;;16.20;52.40;;;;;;6167725;23;20095;-74
2021/04/23 05:05:57;;;;;;;4.55;1.20;;;16.30;52.40;;;;;;6167490;23;20014;-77
2021/04/23 05:08:24;;;;;;;4.07;1.17;;;16.30;50.90;;;;;;6158257;23;20017;-77
2021/04/23 05:10:50;;;;;;;4.22;0.95;;;16.40;52.40;;;;;;6133402;23;20406;-78
2021/04/23 05:13:28;;;;;;;4.60;1.38;;;16.50;52.50;;;;;;6168360;23;20013;-80
2021/04/23 05:15:54;;;;;;;6.43;1.42;;;16.70;52.70;;;;;;6107790;23;20013;-79
2021/04/23 05:18:20;;;;;;;9.80;1.65;;;16.50;51.70;;;;;;6157380;23;20071;-78
2021/04/23 05:20:46;;;;;;;12.50;1.90;;;16.20;52.80;;;;;;6157381;23;20400;-78
2021/04/23 05:23:12;;;;;;;7.30;1.50;;;15.90;53.90;;;;;;6131302;23;20414;-80
2021/04/23 05:25:38;;;;;;;11.90;2.15;;;16.10;55.30;;;;;;6157539;23;20024;-73
2021/04/23 05:28:05;;;;;;;9.27;1.90;;;16.50;55.60;;;;;;6157881;23;20099;-79
2021/04/23 05:30:34;;;;;;;11.88;1.80;;;16.70;55.20;;;;;;6167229;23;20044;-80
2021/04/23 05:33:01;;;;;;;9.88;1.58;;;17.00;55.10;;;;;;6141840;23;20014;-81
2021/04/23 05:35:28;;;;;;;12.40;2.05;;;17.20;54.90;;;;;;6157503;23;20084;-81
2021/04/23 05:37:55;;;;;;;7.82;1.27;;;17.30;55.10;;;;;;6167507;23;20009;-80
2021/04/23 05:40:43;;;;;;;12.05;1.60;;;17.30;55.30;;;;;;6167529;23;20290;-81
2021/04/23 05:43:12;;;;;;;9.50;1.58;;;17.40;55.60;;;;;;6132207;23;20009;-81
2021/04/23 05:45:41;;;;;;;7.07;1.55;;;17.40;55.60;;;;;;6158149;23;20019;-81
2021/04/23 05:48:11;;;;;;;4.70;0.85;;;17.50;55.80;;;;;;6141882;23;20342;-80
2021/04/23 05:50:37;;;;;;;8.95;1.20;;;17.50;55.90;;;;;;6167097;23;20005;-78
2021/04/23 05:53:07;;;;;;;8.82;1.23;;;17.50;55.90;;;;;;6157301;23;20013;-81
2021/04/23 05:55:33;;;;;;;10.15;1.35;;;17.60;55.90;;;;;;6142041;23;20017;-80
2021/04/23 05:58:01;;;;;;;7.15;1.48;;;17.60;55.60;;;;;;6157812;23;20017;-78
2021/04/23 06:00:29;;;;;;;16.13;1.80;;;17.60;55.60;;;;;;6167009;23;20084;-78
2021/04/23 06:03:05;;;;;;;17.40;2.05;;;17.60;54.60;;;;;;6167181;23;20143;-80
2021/04/23 06:05:32;;;;;;;14.20;2.10;;;17.70;55.60;;;;;;6108772;23;20005;-79
2021/04/23 06:08:02;;;;;;;11.88;1.58;;;17.80;54.90;;;;;;6142962;23;20010;-81
2021/04/23 06:10:30;;;;;;;13.57;2.15;;;17.90;54.70;;;;;;6169224;23;20068;-81
2021/04/23 06:12:58;;;;;;;15.10;2.47;;;18.00;54.30;;;;;;6169334;23;20017;-81
2021/04/23 06:15:26;;;;;;;14.93;2.05;;;18.10;54.10;;;;;;6108971;23;20013;-82
2021/04/23 06:17:54;;;;;;;18.85;1.83;;;18.10;53.10;;;;;;6109582;23;20013;-82
2021/04/23 06:20:23;;;;;;;15.05;2.38;;;18.20;52.30;;;;;;6133884;23;20017;-83
2021/04/23 06:22:50;;;;;;;19.88;2.47;;;18.30;52.20;;;;;;6109664;23;20064;-83
2021/04/23 06:25:18;;;;;;;10.98;2.47;;;18.30;52.10;;;;;;6169746;23;20005;-84
2021/04/23 06:27:46;;;;;;;9.93;1.38;;;18.30;52.00;;;;;;6159438;23;20009;-82
2021/04/23 06:30:19;;;;;;;14.80;2.00;;;18.30;51.90;;;;;;6133774;23;20080;-82
2021/04/23 06:32:46;;;;;;;11.30;1.85;;;18.30;51.80;;;;;;6132780;23;20340;-81
2021/04/23 06:35:20;;;;;;;10.65;1.63;;;18.30;51.50;;;;;;6143054;23;20346;-77
2021/04/23 06:37:48;;;;;;;11.50;1.95;;;18.20;51.30;;;;;;6159218;23;20017;-80
2021/04/23 06:40:15;;;;;;;16.80;1.70;;;18.20;51.60;;;;;;6108753;23;20009;-79
2021/04/23 06:42:41;;;;;;;13.20;1.90;;;18.10;51.90;;;;;;6159349;23;20009;-80
2021/04/23 06:45:11;;;;;;;15.30;2.05;;;18.10;52.10;;;;;;6159477;23;20033;-76
2021/04/23 06:47:37;;;;;;;26.58;1.88;;;18.10;52.50;;;;;;6169007;23;20017;-78
2021/04/23 06:50:06;;;;;;;14.52;2.00;;;18.20;52.60;;;;;;6168682;23;20005;-79
2021/04/23 06:52:32;;;;;;;16.27;2.00;;;18.20;52.50;;;;;;6168888;23;20013;-79
2021/04/23 06:54:58;;;;;;;8.68;1.60;;;18.20;52.50;;;;;;6169555;23;20010;-79
2021/04/23 06:57:24;;;;;;;9.07;1.98;;;18.20;52.40;;;;;;6143038;23;20013;-77
2021/04/23 06:59:50;;;;;;;10.10;1.63;;;18.20;52.30;;;;;;6160909;23;20018;-76
2021/04/23 07:02:16;;;;;;;9.65;1.75;;;18.20;52.00;;;;;;6168523;23;20010;-77
2021/04/23 07:04:41;;;;;;;12.60;1.95;;;18.20;51.90;;;;;;6168801;23;20023;-75
2021/04/23 07:07:07;;;;;;;8.85;1.48;;;18.20;51.60;;;;;;6168808;23;20013;-75
2021/04/23 07:09:33;;;;;;;9.07;1.58;;;18.20;51.60;;;;;;6168628;23;20068;-76
2021/04/23 07:12:01;;;;;;;14.80;2.30;;;18.20;51.60;;;;;;6168631;23;20013;-75
2021/04/23 07:14:27;;;;;;;7.13;1.33;;;18.10;51.70;;;;;;6168635;23;20033;-75
2021/04/23 07:16:53;;;;;;;7.65;1.60;;;18.10;51.60;;;;;;6168355;23;20302;-74
2021/04/23 07:19:19;;;;;;;7.75;1.55;;;18.20;51.80;;;;;;6158308;23;20093;-75
2021/04/23 07:21:45;;;;;;;6.30;1.00;;;18.20;51.50;;;;;;6168334;23;20072;-78
2021/04/23 07:24:11;;;;;;;5.15;0.88;;;18.20;51.60;;;;;;6168642;23;20402;-77
2021/04/23 07:26:37;;;;;;;8.40;1.60;;;18.20;51.70;;;;;;6158708;23;20013;-75
2021/04/23 07:29:03;;;;;;;6.20;1.40;;;18.20;51.60;;;;;;6158526;23;20072;-76
2021/04/23 07:31:29;;;;;;;9.40;1.75;;;18.10;51.70;;;;;;6168648;23;20410;-77
2021/04/23 07:33:56;;;;;;;7.20;1.15;;;18.20;51.40;;;;;;6168832;23;20013;-75
2021/04/23 07:36:23;;;;;;;5.40;1.10;;;18.20;51.40;;;;;;6168493;23;20009;-75
2021/04/23 07:38:49;;;;;;;5.82;1.08;;;18.20;51.70;;;;;;6168527;23;20024;-75
2021/04/23 07:41:14;;;;;;;9.02;1.50;;;18.20;51.70;;;;;;6168638;23;20394;-78
2021/04/23 07:43:40;;;;;;;3.55;1.13;;;18.20;51.70;;;;;;6168641;23;20013;-76
2021/04/23 07:46:06;;;;;;;10.50;1.10;;;18.20;51.70;;;;;;6168539;23;20044;-78
2021/04/23 07:48:33;;;;;;;5.18;1.02;;;18.20;51.70;;;;;;6168401;23;20009;-77
2021/04/23 07:51:01;;;;;;;5.90;1.27;;;18.20;51.70;;;;;;6158413;23;20017;-79
2021/04/23 07:53:27;;;;;;;4.32;1.40;;;18.20;52.40;;;;;;6168227;23;20037;-77
2021/04/23 07:55:58;;;;;;;3.67;1.05;;;18.20;51.30;;;;;;6167938;23;20016;-82
2021/04/23 07:58:27;;;;;;;7.38;1.38;;;18.20;51.10;;;;;;6108268;23;20295;-79
2021/04/23 08:00:53;;;;;;;5.85;1.80;;;18.10;51.20;;;;;;6107949;23;20061;-80
2021/04/23 08:03:19;;;;;;;8.45;1.40;;;18.10;51.30;;;;;;6168008;23;20005;-81
2021/04/23 08:05:45;;;;;;;6.75;1.45;;;18.10;51.40;;;;;;6108496;23;20020;-80
2021/04/23 08:08:14;;;;;;;9.27;1.63;;;18.00;51.20;;;;;;6108853;23;20092;-81
2021/04/23 08:10:40;;;;;;;8.63;2.20;;;18.00;50.50;;;;;;6108426;23;20029;-81
2021/04/23 08:13:06;;;;;;;7.63;1.85;;;18.00;48.80;;;;;;6132882;23;20005;-81
2021/04/23 08:15:35;;;;;;;8.10;1.17;;;18.00;48.40;;;;;;6108879;23;20013;-80
2021/04/23 08:18:01;;;;;;;6.53;2.03;;;18.10;48.00;;;;;;6108137;23;20009;-81
2021/04/23 08:20:28;;;;;;;6.43;2.17;;;18.10;48.10;;;;;;6167848;23;20005;-80
2021/04/23 08:22:57;;;;;;;4.30;2.10;;;18.00;46.10;;;;;;6108225;23;20021;-80
2021/04/23 08:25:23;;;;;;;7.47;2.60;;;17.90;45.60;;;;;;6158389;23;20005;-82
2021/04/23 08:27:53;;;;;;;7.72;2.30;;;17.80;45.30;;;;;;6142751;23;20080;-80
2021/04/23 08:30:22;;;;;;;6.28;2.38;;;17.70;45.40;;;;;;6132239;23;20411;-80
2021/04/23 08:32:48;;;;;;;8.68;2.60;;;17.70;45.30;;;;;;6168206;23;20024;-75
2021/04/23 08:35:14;;;;;;;6.03;2.17;;;17.70;45.70;;;;;;6167656;23;20013;-79
2021/04/23 08:37:41;;;;;;;5.35;2.55;;;17.60;45.60;;;;;;6168385;23;20017;-79
2021/04/23 08:40:10;;;;;;;8.65;2.53;;;17.50;46.70;;;;;;6158891;23;20024;-79
2021/04/23 08:42:36;;;;;;;6.63;2.42;;;17.50;48.30;;;;;;6132771;23;20136;-78
2021/04/23 08:45:09;;;;;;;5.95;2.33;;;17.40;49.90;;;;;;6142121;23;20312;-77
2021/04/23 08:47:38;;;;;;;5.50;2.13;;;17.40;51.40;;;;;;6167842;23;20005;-78
2021/04/23 08:50:05;;;;;;;5.00;2.05;;;17.40;52.10;;;;;;6157904;23;20430;-76
2021/04/23 08:52:31;;;;;;;8.52;2.53;;;17.40;54.30;;;;;;6168801;23;20005;-77
2021/04/23 08:54:59;;;;;;;5.50;2.25;;;17.40;53.80;;;;;;6168012;23;20032;-77
2021/04/23 08:57:25;;;;;;;6.30;2.33;;;17.40;53.10;;;;;;6167853;23;20021;-76
2021/04/23 08:59:52;;;;;;;4.43;2.00;;;17.30;52.60;;;;;;6160298;23;20009;-78
2021/04/23 09:02:18;;;;;;;4.30;2.13;;;17.30;52.30;;;;;;6141957;23;20013;-78
2021/04/23 09:04:44;;;;;;;5.10;2.33;;;17.20;52.20;;;;;;6168265;23;20010;-78
2021/04/23 09:07:10;;;;;;;4.55;1.98;;;17.20;52.20;;;;;;6167898;23;20382;-76
2021/04/23 09:09:40;;;;;;;4.93;1.92;;;17.20;52.20;;;;;;6167934;23;20029;-77
2021/04/23 09:12:32;;;;;;;3.53;1.95;;;17.20;52.20;;;;;;6167767;23;20343;-77
2021/04/23 09:15:00;;;;;;;4.90;2.05;;;17.20;52.40;;;;;;6151152;23;20014;-77
2021/04/23 09:17:29;;;;;;;4.07;2.05;;;17.10;52.40;;;;;;6167856;23;20084;-76
2021/04/23 09:19:56;;;;;;;3.28;2.20;;;17.20;52.70;;;;;;6167436;23;20013;-78
2021/04/23 09:22:23;;;;;;;2.95;1.75;;;17.10;52.60;;;;;;6142068;23;20020;-77
2021/04/23 09:25:12;;;;;;;3.22;1.75;;;17.10;52.60;;;;;;6157888;23;20005;-79
2021/04/23 09:27:41;;;;;;;7.10;1.83;;;17.10;52.40;;;;;;6168453;23;20009;-78
2021/04/23 09:30:09;;;;;;;4.95;2.00;;;17.10;52.20;;;;;;6167586;23;20010;-78
2021/04/23 09:32:37;;;;;;;3.13;2.17;;;17.10;52.20;;;;;;6168193;23;20005;-78
2021/04/23 09:35:20;;;;;;;4.53;2.25;;;17.00;52.10;;;;;;6167301;23;20448;-79
2021/04/23 09:37:52;;;;;;;5.78;2.15;;;17.00;52.20;;;;;;6167837;23;20091;-79
2021/04/23 09:40:30;;;;;;;3.83;2.00;;;17.00;52.20;;;;;;6168529;23;20446;-78
2021/04/23 09:43:04;;;;;;;5.32;2.25;;;17.00;52.30;;;;;;6169072;23;20005;-77
2021/04/23 09:45:48;;;;;;;3.58;1.90;;;16.90;52.20;;;;;;6169784;23;20024;-77
2021/04/23 09:48:22;;;;;;;3.35;1.65;;;16.90;52.10;;;;;;6169643;23;20066;-79
2021/04/23 09:50:48;;;;;;;4.50;2.35;;;16.90;52.30;;;;;;6169853;23;20017;-79
2021/04/23 09:53:17;;;;;;;4.40;2.42;;;16.90;52.20;;;;;;6170471;23;20076;-77
2021/04/23 09:55:43;;;;;;;4.60;2.42;;;16.90;52.40;;;;;;6170458;23;20017;-79
2021/04/23 09:58:10;;;;;;;5.78;2.22;;;16.90;52.30;;;;;;6168837;23;20076;-79
2021/04/23 10:00:44;;;;;;;4.03;1.90;;;16.90;52.20;;;;;;6170360;23;20049;-77
2021/04/23 10:03:10;;;;;;;4.68;2.40;;;16.90;52.10;;;;;;6169389;23;20056;-79
2021/04/23 10:05:39;;;;;;;4.38;2.05;;;16.90;52.30;;;;;;6169727;23;20415;-78
2021/04/23 10:08:23;;;;;;;2.45;1.85;;;16.90;52.40;;;;;;6170005;23;20268;-78
2021/04/23 10:10:56;;;;;;;4.05;1.88;;;16.90;52.60;;;;;;6169760;23;20061;-79
2021/04/23 10:13:30;;;;;;;3.58;1.77;;;16.90;52.50;;;;;;6170260;23;20017;-78
2021/04/23 10:15:56;;;;;;;3.58;2.33;;;16.90;52.60;;;;;;6169199;23;20010;-80
2021/04/23 10:18:22;;;;;;;2.97;2.00;;;16.90;52.40;;;;;;6169964;23;20029;-77
2021/04/23 10:20:50;;;;;;;4.00;1.85;;;16.90;52.50;;;;;;6170229;23;20009;-77
2021/04/23 10:23:21;;;;;;;2.90;1.95;;;16.80;52.40;;;;;;6169103;23;20068;-78
2021/04/23 10:25:49;;;;;;;3.72;2.00;;;16.80;52.40;;;;;;6169211;23;20020;-78
2021/04/23 10:28:20;;;;;;;4.25;2.72;;;16.80;52.30;;;;;;6169880;23;20013;-77
2021/04/23 10:30:48;;;;;;;5.30;2.17;;;16.80;52.50;;;;;;6160156;23;20017;-78
2021/04/23 10:33:17;;;;;;;4.63;2.42;;;16.80;52.50;;;;;;6169325;23;20021;-78
2021/04/23 10:35:45;;;;;;;2.90;1.90;;;16.80;52.40;;;;;;6169427;23;20009;-77
2021/04/23 10:38:24;;;;;;;3.80;2.13;;;16.80;52.40;;;;;;6169705;23;20260;-77
2021/04/23 10:41:01;;;;;;;2.70;1.98;;;16.80;52.50;;;;;;6169519;23;20013;-78
2021/04/23 10:43:33;;;;;;;4.32;2.25;;;16.80;52.50;;;;;;6168913;23;20028;-80
2021/04/23 10:46:05;;;;;;;10.13;2.72;;;16.80;52.40;;;;;;6168784;23;20013;-79
2021/04/23 10:48:40;;;;;;;6.88;2.42;;;16.80;52.20;;;;;;6169435;23;20430;-76
2021/04/23 10:51:09;;;;;;;9.60;2.53;;;16.70;52.50;;;;;;6168830;23;20303;-74
2021/04/23 10:53:43;;;;;;;10.07;2.40;;;16.70;52.60;;;;;;6169182;23;20010;-75
2021/04/23 10:56:34;;;;;;;8.25;2.08;;;16.80;52.30;;;;;;6169343;23;20009;-77
2021/04/23 10:59:04;;;;;;;8.40;2.70;;;16.90;51.70;;;;;;6165192;23;20046;-79
2021/04/23 11:01:34;;;;;;;16.90;3.10;;;16.90;52.00;;;;;;6143396;23;20080;-84
2021/04/23 11:04:04;;;;;;;11.98;2.80;;;17.00;52.30;;;;;;6133428;23;20335;-79
2021/04/23 11:06:36;;;;;;;10.93;2.30;;;17.00;51.70;;;;;;6168734;23;20017;-79
2021/04/23 11:09:07;;;;;;;12.90;2.92;;;17.10;50.30;;;;;;6168748;23;20005;-79
2021/04/23 11:11:37;;;;;;;7.95;2.80;;;17.10;50.20;;;;;;6168590;23;20010;-79
2021/04/23 11:14:21;;;;;;;11.23;2.30;;;17.10;50.40;;;;;;6168750;23;20014;-79
2021/04/23 11:16:48;;;;;;;13.70;2.78;;;17.10;50.40;;;;;;6159114;23;20048;-81
2021/04/23 11:19:18;;;;;;;10.35;2.38;;;17.10;50.50;;;;;;6158769;23;20017;-81
2021/04/23 11:21:44;;;;;;;14.55;2.63;;;17.10;50.90;;;;;;6158839;23;20009;-81
2021/04/23 11:24:15;;;;;;;15.00;2.78;;;17.10;51.00;;;;;;6168512;23;20385;-80
2021/04/23 11:27:01;;;;;;;10.32;2.40;;;17.10;51.20;;;;;;6159063;23;20017;-80
2021/04/23 11:29:32;;;;;;;11.65;2.85;;;17.10;51.60;;;;;;6143901;23;20014;-81
2021/04/23 11:32:19;;;;;;;7.57;2.10;;;17.10;51.70;;;;;;6168985;23;20013;-77
2021/04/23 11:34:52;;;;;;;11.38;2.30;;;17.20;52.00;;;;;;6158572;23;20018;-76
2021/04/23 11:37:26;;;;;;;11.13;2.78;;;17.20;52.10;;;;;;6168411;23;20017;-76
2021/04/23 11:39:54;;;;;;;;;;;17.20;52.20;;;;;;6169863;23;20097;-77
2021/04/23 11:42:28;;;;;;;10.48;2.22;;;17.10;52.60;;;;;;6143015;23;19916;-75
2021/04/23 11:45:03;;;;;;;7.18;2.30;;;17.10;52.70;;;;;;6168783;23;20020;-77
2021/04/23 11:47:32;;;;;;;13.90;2.60;;;17.10;52.90;;;;;;6158453;23;20419;-77
2021/04/23 11:50:33;;;;;;;9.35;2.55;;;17.20;52.80;;;;;;6169044;23;20017;-75
2021/04/23 11:53:08;;;;;;;8.52;2.25;;;17.20;53.00;;;;;;6149987;23;20145;-77
2021/04/23 11:55:50;;;;;;;8.68;2.28;;;17.30;53.10;;;;;;6159027;23;20013;-77
2021/04/23 11:58:22;;;;;;;14.27;3.03;;;17.40;53.10;;;;;;6159514;23;20014;-78
2021/04/23 12:00:53;;;;;;;14.95;2.65;;;17.50;53.10;;;;;;6160906;23;20020;-75
2021/04/23 12:03:20;;;;;;;16.27;3.28;;;17.60;52.90;;;;;;6168160;23;20010;-76
2021/04/23 12:05:54;;;;;;;14.32;2.50;;;17.70;52.90;;;;;;6168993;23;20022;-79
2021/04/23 12:08:32;;;;;;;10.75;2.28;;;17.90;52.90;;;;;;6168576;23;20037;-76
2021/04/23 12:11:03;;;;;;;14.55;3.08;;;17.90;52.70;;;;;;6158694;23;20123;-76
2021/04/23 12:13:38;;;;;;;11.30;2.67;;;17.90;52.70;;;;;;6168212;23;20036;-77
2021/04/23 12:16:13;;;;;;;15.48;2.50;;;18.00;53.20;;;;;;6168526;23;20013;-77
2021/04/23 12:18:44;;;;;;;20.33;3.55;;;18.00;53.20;;;;;;6168769;23;20018;-77
2021/04/23 12:21:11;;;;;;;17.67;3.55;;;18.00;53.30;;;;;;6133229;23;20013;-76
2021/04/23 12:23:38;;;;;;;19.40;2.97;;;18.00;53.30;;;;;;6168303;23;20009;-77
2021/04/23 12:26:09;;;;;;;15.27;2.88;;;18.00;53.30;;;;;;6168463;23;20295;-77
2021/04/23 12:28:47;;;;;;;13.95;3.35;;;18.10;53.40;;;;;;6168293;23;20013;-73
2021/04/23 12:31:21;;;;;;;16.83;2.90;;;18.10;53.30;;;;;;6167983;23;20021;-76
2021/04/23 12:33:52;;;;;;;;;;;18.00;52.50;;;;;;6168533;23;20009;-76
2021/04/23 12:36:35;;;;;;;19.10;2.90;;;17.90;52.50;;;;;;6167914;23;19987;-76
2021/04/23 12:39:06;;;;;;;21.75;3.88;;;17.90;53.00;;;;;;6168361;23;20009;-76
2021/04/23 12:41:41;;;;;;;19.75;3.50;;;17.90;53.20;;;;;;6167882;23;20427;-76
2021/04/23 12:44:15;;;;;;;15.52;3.22;;;17.90;53.40;;;;;;6158145;23;20013;-77
2021/04/23 12:46:44;;;;;;;25.80;3.58;;;17.90;53.50;;;;;;6168154;23;20021;-76
2021/04/23 12:49:19;;;;;;;19.70;3.30;;;17.90;53.60;;;;;;6168319;23;20013;-76
2021/04/23 12:51:57;;;;;;;24.65;3.90;;;17.80;53.60;;;;;;6168202;23;20013;-76
2021/04/23 12:54:38;;;;;;;15.85;4.05;;;17.90;53.80;;;;;;6167757;23;20419;-76
2021/04/23 12:57:10;;;;;;;24.58;4.10;;;17.90;53.90;;;;;;6168113;23;20029;-76